Time;durP1;ratioP1;P1;durP2;ratioP2;P2;SDS_P1;SDS_P2;PMS_P1;PMS_P2;Temp;Humidity;BMP_temperature;BMP_pressure;BME280_temperature;BME280_humidity;BME280_pressure;Samples;Min_cycle;Max_cycle;Signal;HPM_P1;HPM_P2
2023/11/27 00:04:56;;;;;;;13.30;5.40;;;;;;;-1.57;94.27;98441.40;270848;1267;22559;-83
2023/11/27 00:10:57;;;;;;;11.70;5.40;;;;;;;-1.54;94.70;98442.80;273368;1268;22196;-82
2023/11/27 00:16:58;;;;;;;12.10;5.50;;;;;;;-1.55;94.34;98444.09;273345;1260;22483;-81
2023/11/27 00:23:00;;;;;;;15.30;6.00;;;;;;;-1.52;94.26;98441.07;271188;1267;22613;-83
2023/11/27 00:29:01;;;;;;;14.20;6.50;;;;;;;-1.50;94.10;98440.26;270503;1267;22547;-81
2023/11/27 00:35:04;;;;;;;17.90;6.60;;;;;;;-1.49;94.20;98443.77;270816;1263;22482;-81
2023/11/27 00:41:06;;;;;;;15.00;5.80;;;;;;;-1.47;94.13;98437.27;272887;1269;22397;-82
2023/11/27 00:47:07;;;;;;;11.80;5.50;;;;;;;-1.46;94.02;98433.64;273368;1262;22482;-83
2023/11/27 00:53:09;;;;;;;9.10;5.00;;;;;;;-1.46;93.99;98429.73;273228;1267;22190;-82
2023/11/27 00:59:10;;;;;;;15.40;6.30;;;;;;;-1.48;93.48;98427.64;271435;1266;22210;-83
2023/11/27 01:05:14;;;;;;;16.40;6.20;;;;;;;-1.48;93.32;98421.09;273222;1266;22380;-83
2023/11/27 01:11:15;;;;;;;14.80;5.80;;;;;;;-1.46;93.97;98409.82;273260;1267;22181;-82
2023/11/27 01:17:16;;;;;;;13.60;5.20;;;;;;;-1.48;93.71;98396.93;271546;1260;22527;-82
2023/11/27 01:23:18;;;;;;;19.00;6.50;;;;;;;-1.51;93.63;98388.75;272493;1268;22188;-82
2023/11/27 01:29:21;;;;;;;17.80;7.10;;;;;;;-1.51;93.81;98384.95;273453;1266;23076;-82
2023/11/27 01:35:22;;;;;;;13.10;6.30;;;;;;;-1.52;93.87;98372.35;272153;1266;22567;-83
2023/11/27 01:41:24;;;;;;;13.30;6.40;;;;;;;-1.57;93.76;98368.54;270842;1260;22390;-82
2023/11/27 01:47:25;;;;;;;11.90;5.60;;;;;;;-1.59;93.76;98362.07;270170;1269;22584;-82
2023/11/27 01:53:27;;;;;;;12.40;6.90;;;;;;;-1.70;93.73;98360.99;273255;1267;22519;-82
2023/11/27 01:59:28;;;;;;;17.40;7.60;;;;;;;-1.77;93.80;98353.55;273172;1267;22358;-82
2023/11/27 02:05:30;;;;;;;18.10;7.40;;;;;;;-1.78;94.04;98347.04;272743;1269;22684;-82
2023/11/27 02:11:31;;;;;;;13.00;7.60;;;;;;;-1.83;94.19;98343.20;270185;1256;22545;-82
2023/11/27 02:17:33;;;;;;;16.30;8.10;;;;;;;-1.84;94.71;98338.55;272972;1267;22489;-82
2023/11/27 02:23:34;;;;;;;18.80;8.80;;;;;;;-1.85;94.66;98330.12;273291;1267;22234;-83
2023/11/27 02:29:35;;;;;;;22.50;10.40;;;;;;;-1.85;94.84;98328.55;273335;1254;23095;-83
2023/11/27 02:35:57;;;;;;;20.90;10.20;;;;;;;-1.84;94.81;98328.04;271948;1262;103090;-84
2023/11/27 02:42:00;;;;;;;23.30;10.00;;;;;;;-1.83;94.90;98318.36;272123;1270;22520;-84
2023/11/27 02:48:21;;;;;;;23.40;10.30;;;;;;;-1.90;94.63;98315.40;272492;1270;22408;-84
2023/11/27 02:54:22;;;;;;;22.00;10.00;;;;;;;-2.01;94.59;98319.84;272055;1267;22480;-84
2023/11/27 03:00:23;;;;;;;23.70;10.60;;;;;;;-2.08;94.80;98315.05;272148;1270;22459;-84
2023/11/27 03:06:24;;;;;;;22.30;10.20;;;;;;;-2.15;94.83;98308.83;272257;1270;22398;-84
2023/11/27 03:12:30;;;;;;;18.30;9.70;;;;;;;-2.12;95.02;98304.95;272185;1270;22429;-84
2023/11/27 03:18:31;;;;;;;22.50;9.00;;;;;;;-2.05;95.27;98291.52;272293;1269;22564;-84
2023/11/27 03:24:32;;;;;;;14.50;7.80;;;;;;;-2.01;95.03;98283.02;272299;1270;22504;-83
2023/11/27 03:30:33;;;;;;;15.00;7.20;;;;;;;-2.03;94.65;98271.88;272172;1269;139882;-84
2023/11/27 03:36:34;;;;;;;13.20;6.70;;;;;;;-2.05;94.62;98267.16;272347;1259;23120;-84
2023/11/27 03:42:35;;;;;;;14.30;6.60;;;;;;;-2.01;94.74;98265.34;272419;1270;22668;-83
2023/11/27 03:48:37;;;;;;;12.40;5.80;;;;;;;-1.98;94.62;98266.26;272472;1263;22511;-85
2023/11/27 03:54:39;;;;;;;13.70;5.90;;;;;;;-1.94;94.61;98268.61;272434;1269;22432;-83
2023/11/27 04:00:41;;;;;;;13.30;5.80;;;;;;;-1.92;94.42;98266.25;272452;1270;22838;-83
2023/11/27 04:06:45;;;;;;;11.20;5.80;;;;;;;-1.94;94.32;98261.54;272359;1270;24014;-83
2023/11/27 04:12:46;;;;;;;14.20;6.90;;;;;;;-1.97;94.33;98250.67;272267;1270;24039;-84
2023/11/27 04:18:48;;;;;;;12.40;6.00;;;;;;;-1.94;94.36;98258.20;272493;1270;22960;-83
2023/11/27 04:24:51;;;;;;;11.80;6.10;;;;;;;-1.93;94.60;98265.15;272488;1269;23275;-83
2023/11/27 04:30:52;;;;;;;14.40;6.10;;;;;;;-1.89;94.93;98262.14;272426;1269;22430;-84
2023/11/27 04:36:53;;;;;;;14.20;7.80;;;;;;;-1.89;94.90;98260.30;272638;1269;22949;-83
2023/11/27 04:42:54;;;;;;;14.60;7.70;;;;;;;-1.87;95.09;98252.86;272418;1270;23769;-83
2023/11/27 04:48:55;;;;;;;16.80;8.20;;;;;;;-1.92;94.94;98256.38;272542;1270;23599;-83
2023/11/27 04:54:56;;;;;;;14.70;7.90;;;;;;;-1.96;95.04;98269.05;272452;1270;23292;-83
2023/11/27 05:01:02;;;;;;;19.80;9.00;;;;;;;-1.96;95.31;98271.83;272501;1264;22420;-83
2023/11/27 05:07:03;;;;;;;17.40;8.80;;;;;;;-1.93;95.72;98267.98;272544;1270;22385;-83
2023/11/27 05:13:07;;;;;;;43.70;17.00;;;;;;;-1.93;95.98;98264.58;272341;1270;23566;-83
2023/11/27 05:19:08;;;;;;;28.70;11.90;;;;;;;-1.96;96.53;98262.86;272240;1270;22493;-83
2023/11/27 05:25:09;;;;;;;22.30;9.70;;;;;;;-1.97;97.09;98263.39;272460;1262;23231;-83
2023/11/27 05:31:13;;;;;;;24.80;10.50;;;;;;;-2.00;97.32;98263.42;272328;1270;23190;-83
2023/11/27 05:37:17;;;;;;;18.60;9.10;;;;;;;-1.98;97.72;98259.52;272435;1270;23244;-83
2023/11/27 05:43:19;;;;;;;24.70;11.20;;;;;;;-1.95;98.10;98261.45;272499;1269;22496;-83
2023/11/27 05:49:20;;;;;;;22.90;10.50;;;;;;;-1.94;98.24;98267.48;272373;1270;22423;-83
2023/11/27 05:55:21;;;;;;;25.00;11.80;;;;;;;-1.94;98.44;98270.55;272455;1269;22256;-82
2023/11/27 06:01:32;;;;;;;24.30;11.60;;;;;;;-1.97;98.70;98269.98;272101;1265;22454;-83
2023/11/27 06:07:34;;;;;;;24.90;11.50;;;;;;;-2.06;98.87;98264.34;272226;1269;22411;-83
2023/11/27 06:20:56;;;;;;;21.30;11.40;;;;;;;-2.09;99.74;98271.40;272503;1270;22359;-83
2023/11/27 06:27:22;;;;;;;19.40;11.60;;;;;;;-2.06;99.87;98269.17;272478;1270;22866;-84
2023/11/27 06:33:24;;;;;;;20.50;10.70;;;;;;;-2.09;99.86;98275.09;272530;1270;22385;-83
2023/11/27 06:39:26;;;;;;;16.90;9.90;;;;;;;-2.03;100.00;98276.06;272611;1270;22504;-88
2023/11/27 06:45:27;;;;;;;26.30;13.30;;;;;;;-2.07;99.78;98282.01;272296;1270;22449;-83
2023/11/27 06:51:28;;;;;;;21.60;12.70;;;;;;;-2.20;99.82;98284.34;272526;1270;22469;-83
2023/11/27 06:57:29;;;;;;;17.30;10.10;;;;;;;-2.18;100.00;98274.81;272190;1270;22453;-84
2023/11/27 07:03:31;;;;;;;20.40;11.40;;;;;;;-2.13;100.00;98277.67;272398;1270;22509;-86
2023/11/27 07:09:32;;;;;;;22.10;12.20;;;;;;;-2.04;100.00;98274.90;272395;1270;22408;-84
2023/11/27 07:15:36;;;;;;;22.10;13.30;;;;;;;-1.95;100.00;98275.02;272354;1270;22408;-84
2023/11/27 07:22:04;;;;;;;25.00;15.00;;;;;;;-1.85;100.00;98280.33;272525;1269;22422;-84
2023/11/27 07:28:05;;;;;;;26.10;14.80;;;;;;;-1.77;100.00;98283.30;272561;1270;22449;-85
2023/11/27 07:34:29;;;;;;;29.90;15.80;;;;;;;-1.76;100.00;98283.66;273167;1271;22312;-84
2023/11/27 07:40:56;;;;;;;28.30;14.00;;;;;;;-1.74;100.00;98285.66;273093;1270;22326;-84
2023/11/27 07:55:43;;;;;;;30.00;16.00;;;;;;;-1.57;100.00;98287.08;272694;1272;22468;-85
2023/11/27 08:33:10;;;;;;;40.60;23.20;;;;;;;-0.95;100.00;98282.39;273106;1270;22423;-83
2023/11/27 08:47:19;;;;;;;40.60;23.40;;;;;;;-0.79;100.00;98293.64;273124;1270;23113;-81
2023/11/27 08:54:09;;;;;;;39.80;23.40;;;;;;;-0.75;100.00;98295.50;273033;1257;22570;-82
2023/11/27 09:00:19;;;;;;;44.30;23.60;;;;;;;-0.57;100.00;98289.14;272283;1270;22408;-83
2023/11/27 09:06:29;;;;;;;34.10;20.30;;;;;;;-0.29;100.00;98280.71;272298;1269;22422;-83
2023/11/27 09:12:31;;;;;;;30.40;16.60;;;;;;;-0.02;100.00;98273.15;272323;1270;22449;-82
2023/11/27 09:18:32;;;;;;;25.00;14.60;;;;;;;0.49;100.00;98271.54;272257;1270;22418;-82
2023/11/27 09:24:33;;;;;;;26.10;14.00;;;;;;;0.97;100.00;98270.22;272317;1269;23445;-84
2023/11/27 09:30:35;;;;;;;23.70;13.00;;;;;;;1.10;100.00;98268.40;272393;1266;22420;-83
2023/11/27 09:36:36;;;;;;;18.60;11.00;;;;;;;1.70;100.00;98265.80;272324;1270;22426;-81
2023/11/27 09:42:37;;;;;;;20.90;11.50;;;;;;;1.88;98.89;98266.20;272288;1266;22308;-84
2023/11/27 09:48:40;;;;;;;23.90;13.50;;;;;;;1.67;97.74;98263.08;272303;1269;23284;-84
2023/11/27 09:54:44;;;;;;;18.80;11.30;;;;;;;1.85;98.21;98258.30;272318;1269;22499;-83
2023/11/27 10:00:48;;;;;;;18.40;10.10;;;;;;;2.48;98.20;98254.60;272341;1270;22399;-83
2023/11/27 10:06:51;;;;;;;18.80;10.60;;;;;;;2.96;97.30;98245.09;272393;1259;22430;-84
2023/11/27 10:13:12;;;;;;;22.00;10.50;;;;;;;3.43;96.40;98238.83;272366;1269;22447;-83
2023/11/27 10:19:39;;;;;;;20.20;11.40;;;;;;;3.49;95.77;98227.55;272383;1263;22473;-84
2023/11/27 10:25:40;;;;;;;20.10;11.70;;;;;;;3.43;94.84;98223.52;272471;1270;22446;-83
2023/11/27 10:31:41;;;;;;;17.30;9.30;;;;;;;3.03;93.72;98224.50;272335;1270;22373;-83
2023/11/27 10:37:43;;;;;;;13.10;6.90;;;;;;;2.78;92.13;98215.14;272261;1270;22427;-83
2023/11/27 10:43:44;;;;;;;13.70;6.80;;;;;;;2.66;91.56;98215.48;272352;1266;22381;-83
2023/11/27 10:49:46;;;;;;;12.80;7.10;;;;;;;2.26;90.15;98211.33;272363;1270;23168;-83
2023/11/27 10:55:47;;;;;;;15.50;8.20;;;;;;;1.98;90.84;98205.89;272465;1270;22532;-84
2023/11/27 11:01:54;;;;;;;13.90;6.90;;;;;;;2.05;91.50;98202.35;272296;1270;23621;-84
2023/11/27 11:08:15;;;;;;;8.30;4.90;;;;;;;1.98;89.97;98200.50;272375;1270;22353;-83
2023/11/27 11:14:16;;;;;;;12.00;5.60;;;;;;;1.76;89.10;98200.02;272287;1270;22389;-84
2023/11/27 11:20:49;;;;;;;12.90;6.90;;;;;;;1.52;89.05;98195.77;272447;1270;22460;-85
2023/11/27 11:27:16;;;;;;;10.90;5.90;;;;;;;1.33;88.79;98187.25;272355;1270;23580;-85
2023/11/27 11:33:18;;;;;;;13.00;6.40;;;;;;;1.10;88.12;98181.91;272371;1266;22448;-84
2023/11/27 11:39:45;;;;;;;9.40;6.00;;;;;;;0.92;88.26;98180.83;272442;1270;22442;-84
2023/11/27 11:45:46;;;;;;;13.80;7.90;;;;;;;0.84;88.49;98172.91;272570;1269;23288;-86
2023/11/27 11:52:08;;;;;;;14.10;6.90;;;;;;;0.82;88.46;98161.52;272439;1270;23437;-86
2023/11/27 11:59:17;;;;;;;13.80;7.30;;;;;;;0.68;88.15;98147.84;272449;1269;22426;-86
2023/11/27 12:06:13;;;;;;;15.60;7.50;;;;;;;0.62;87.98;98138.95;272550;1267;22357;-83
2023/11/27 12:13:15;;;;;;;14.90;8.40;;;;;;;0.57;88.22;98128.00;268201;1292;545553;-83
2023/11/27 12:19:36;;;;;;;18.20;9.80;;;;;;;0.48;87.76;98116.29;270728;1270;22442;-85
2023/11/27 12:25:42;;;;;;;17.20;9.00;;;;;;;0.55;88.44;98114.04;271089;1279;164222;-83
2023/11/27 12:32:05;;;;;;;18.80;9.60;;;;;;;0.56;88.39;98112.27;273367;1266;22403;-83
2023/11/27 12:38:16;;;;;;;20.80;9.60;;;;;;;0.60;88.30;98112.16;273433;1266;23415;-83
2023/11/27 12:44:19;;;;;;;17.80;9.50;;;;;;;0.63;88.36;98110.42;273263;1266;23038;-84
2023/11/27 12:50:57;;;;;;;20.80;10.40;;;;;;;0.62;88.59;98103.02;272867;1266;22402;-83
2023/11/27 13:12:30;;;;;;;23.30;11.10;;;;;;;0.37;87.43;98082.94;272433;1269;23012;-83
2023/11/27 13:18:51;;;;;;;22.00;10.80;;;;;;;0.35;87.51;98079.09;271530;1263;22488;-84
2023/11/27 13:25:15;;;;;;;29.50;12.20;;;;;;;0.31;87.47;98075.02;272701;1269;23520;-83
2023/11/27 13:31:42;;;;;;;22.10;11.30;;;;;;;0.21;87.73;98066.84;271637;1269;22564;-83
2023/11/27 13:38:02;;;;;;;25.30;10.10;;;;;;;0.13;88.05;98060.83;272252;1268;24274;-83
2023/11/27 13:44:28;;;;;;;24.20;11.90;;;;;;;0.10;88.73;98058.85;273597;1269;22230;-83
2023/11/27 13:58:37;;;;;;;27.90;12.40;;;;;;;-0.04;88.74;98064.89;273379;1265;22226;-83
2023/11/27 14:04:39;;;;;;;26.10;12.90;;;;;;;-0.16;88.95;98063.30;272322;1266;22650;-84
2023/11/27 14:26:20;;;;;;;;;;;;;;;;;;;;;
2023/11/27 14:32:45;;;;;;;25.80;12.60;;;;;;;-0.66;89.34;98035.24;273588;1266;23188;-85
2023/11/27 14:39:16;;;;;;;34.90;15.90;;;;;;;-0.77;89.34;98020.69;273510;1266;22426;-85
2023/11/27 14:46:36;;;;;;;44.70;20.80;;;;;;;-0.92;89.37;98015.17;274318;1272;22217;-85
2023/11/27 15:08:05;;;;;;;31.20;15.70;;;;;;;-1.37;90.34;97991.98;274006;1266;23011;-85
2023/11/27 15:14:47;;;;;;;97.90;40.70;;;;;;;-1.46;90.57;97977.14;274055;1267;22027;-85
2023/11/27 15:21:09;;;;;;;110.50;50.10;;;;;;;-1.54;90.64;97964.37;273792;1266;22241;-86
2023/11/27 15:27:36;;;;;;;112.30;51.70;;;;;;;-1.59;91.07;97959.50;273895;1266;23322;-82
2023/11/27 15:33:38;;;;;;;78.70;37.30;;;;;;;-1.59;91.24;97947.23;273262;1266;22419;-84
2023/11/27 15:39:48;;;;;;;65.30;32.20;;;;;;;-1.63;91.39;97937.93;273499;1266;22215;-85
2023/11/27 15:45:49;;;;;;;65.00;34.40;;;;;;;-1.68;91.57;97937.98;273278;1267;22525;-83
2023/11/27 15:52:21;;;;;;;74.70;35.50;;;;;;;-1.72;91.76;97930.59;273444;1266;22399;-84
2023/11/27 15:58:42;;;;;;;80.00;38.10;;;;;;;-1.74;91.86;97926.20;274007;1266;22827;-85
2023/11/27 16:05:28;;;;;;;73.80;36.90;;;;;;;-1.71;92.16;97919.89;273991;1266;22189;-84
2023/11/27 16:12:52;;;;;;;86.70;40.10;;;;;;;-1.67;92.49;97915.08;274361;1267;22318;-84
2023/11/27 16:19:55;;;;;;;81.30;37.90;;;;;;;-1.68;92.54;97909.38;273658;1266;22529;-83
2023/11/27 16:25:57;;;;;;;77.70;35.30;;;;;;;-1.74;92.87;97899.29;273794;1266;22488;-84
2023/11/27 16:32:18;;;;;;;83.60;37.10;;;;;;;-1.79;93.26;97890.66;273874;1266;22243;-83
2023/11/27 16:46:09;;;;;;;75.60;33.90;;;;;;;-2.02;93.14;97889.34;274096;1266;22874;-84
2023/11/27 16:53:08;;;;;;;70.40;32.90;;;;;;;-2.12;93.59;97881.45;273910;1267;22406;-84
2023/11/27 17:07:11;;;;;;;94.70;39.40;;;;;;;-2.23;95.03;97868.07;273435;1266;22894;-84
2023/11/27 17:14:28;;;;;;;134.70;55.10;;;;;;;-2.29;95.19;97868.23;274313;1253;23745;-84
2023/11/27 17:20:54;;;;;;;98.40;43.20;;;;;;;-2.29;95.24;97860.05;274009;1267;22238;-84
2023/11/27 17:27:47;;;;;;;98.90;42.10;;;;;;;-2.23;95.35;97853.86;272532;1267;24186;-84
2023/11/27 17:34:09;;;;;;;89.90;39.20;;;;;;;-2.15;95.58;97853.13;274304;1266;23770;-84
2023/11/27 17:40:38;;;;;;;80.00;37.30;;;;;;;-2.11;96.12;97856.46;273966;1266;23474;-84
2023/11/27 17:46:59;;;;;;;89.50;43.90;;;;;;;-2.05;96.83;97842.69;273687;1266;22665;-83
2023/11/27 18:02:00;;;;;;;90.70;40.60;;;;;;;-1.89;96.82;97835.25;272697;1273;23707;-85
2023/11/27 18:08:29;;;;;;;84.90;40.40;;;;;;;-1.81;96.62;97824.57;272392;1274;23216;-85
2023/11/27 18:14:31;;;;;;;89.50;41.40;;;;;;;-1.76;96.35;97820.52;272584;1273;23294;-86
2023/11/27 18:21:32;;;;;;;120.90;58.40;;;;;;;-1.70;96.47;97812.47;272495;1273;22976;-85
2023/11/27 18:27:34;;;;;;;99.30;47.00;;;;;;;-1.71;96.96;97797.80;272962;1266;23188;-85
2023/11/27 18:34:16;;;;;;;102.10;51.70;;;;;;;-1.69;97.41;97796.39;274042;1269;22270;-85
2023/11/27 18:40:48;;;;;;;133.60;59.60;;;;;;;-1.70;97.68;97787.02;274238;1266;22260;-84
2023/11/27 18:47:51;;;;;;;104.80;46.40;;;;;;;-1.68;98.12;97784.02;274280;1266;22465;-85
2023/11/27 18:55:14;;;;;;;89.80;42.60;;;;;;;-1.65;98.45;97786.27;272257;1281;23185;-86
2023/11/27 19:01:52;;;;;;;103.40;47.90;;;;;;;-1.59;98.85;97778.70;272418;1266;22985;-85
2023/11/27 19:16:05;;;;;;;113.00;54.00;;;;;;;-1.57;98.47;97745.55;274103;1267;22766;-86
2023/11/27 19:23:00;;;;;;;123.80;55.70;;;;;;;-1.60;98.42;97737.25;273969;1266;23296;-85
2023/11/27 19:29:26;;;;;;;90.30;41.30;;;;;;;-1.64;98.16;97716.49;274150;1266;22175;-85
2023/11/27 19:36:40;;;;;;;106.90;48.40;;;;;;;-1.66;98.08;97700.98;273931;1266;23042;-84
2023/11/27 19:42:50;;;;;;;115.20;52.40;;;;;;;-1.74;98.04;97692.36;274106;1267;22948;-85
2023/11/27 19:49:13;;;;;;;98.00;44.00;;;;;;;-1.80;98.42;97682.84;274452;1267;22293;-86
2023/11/27 19:56:41;;;;;;;102.30;48.00;;;;;;;-1.83;98.71;97667.33;273720;1266;22384;-85
2023/11/27 20:03:30;;;;;;;107.90;48.60;;;;;;;-1.86;98.70;97650.25;266124;1266;10001668;-84
2023/11/27 20:17:26;;;;;;;96.40;45.70;;;;;;;-1.92;98.79;97616.84;274207;1253;22704;-86
2023/11/27 20:23:29;;;;;;;109.10;45.90;;;;;;;-1.98;98.54;97612.57;273065;1266;23228;-85
2023/11/27 20:30:16;;;;;;;112.90;46.70;;;;;;;-2.02;98.86;97610.73;273574;1266;22615;-85
2023/11/27 20:36:42;;;;;;;95.80;43.50;;;;;;;-2.02;99.10;97617.33;274043;1266;22277;-85
2023/11/27 20:51:02;;;;;;;78.10;37.60;;;;;;;-2.01;99.24;97593.22;273422;1266;23197;-85
2023/11/27 20:58:34;;;;;;;91.70;39.90;;;;;;;-2.02;99.32;97567.59;273329;1269;22272;-87
2023/11/27 21:04:37;;;;;;;87.50;41.40;;;;;;;-2.08;99.41;97558.27;273024;1269;22412;-85
2023/11/27 21:18:09;;;;;;;85.50;39.80;;;;;;;-2.09;99.92;97544.73;273431;1269;22240;-85
2023/11/27 21:24:10;;;;;;;80.10;39.40;;;;;;;-2.04;100.00;97538.95;273726;1265;23504;-84
2023/11/27 21:30:26;;;;;;;87.00;41.20;;;;;;;-2.00;99.96;97534.56;273180;1269;23068;-84
2023/11/27 21:37:17;;;;;;;110.50;49.40;;;;;;;-2.01;99.91;97527.66;273583;1269;22204;-86
2023/11/27 21:44:01;;;;;;;110.70;49.10;;;;;;;-2.04;100.00;97522.70;273451;1269;22498;-84
2023/11/27 21:50:30;;;;;;;96.30;43.80;;;;;;;-2.06;100.00;97516.20;273769;1269;22232;-85
2023/11/27 21:57:17;;;;;;;94.90;43.10;;;;;;;-2.04;100.00;97519.65;273597;1269;23256;-85
2023/11/27 22:11:28;;;;;;;100.50;46.00;;;;;;;-1.96;100.00;97500.33;273873;1265;22816;-85
2023/11/27 22:25:15;;;;;;;108.70;47.00;;;;;;;-1.85;100.00;97467.38;273884;1265;23338;-85
2023/11/27 22:31:42;;;;;;;97.60;43.80;;;;;;;-1.85;100.00;97457.27;274270;1266;22628;-85
2023/11/27 22:37:46;;;;;;;102.40;44.80;;;;;;;-1.81;100.00;97456.48;274114;1269;22199;-84
2023/11/27 22:52:07;;;;;;;94.10;44.30;;;;;;;-1.78;100.00;97429.38;272516;1272;22601;-85
2023/11/27 22:58:29;;;;;;;101.90;46.00;;;;;;;-1.81;100.00;97420.23;273315;1266;22294;-85
2023/11/27 23:05:31;;;;;;;102.40;47.70;;;;;;;-1.83;100.00;97413.27;272805;1269;24334;-85
2023/11/27 23:12:18;;;;;;;;;;;;;;;-1.82;100.00;97405.93;271991;1269;22520;-85
2023/11/27 23:19:04;;;;;;;103.20;45.30;;;;;;;-1.81;100.00;97396.33;272504;1269;22973;-84
2023/11/27 23:33:44;;;;;;;107.90;47.00;;;;;;;-1.81;100.00;97371.87;272505;1273;23296;-86
2023/11/27 23:39:45;;;;;;;108.30;49.50;;;;;;;-1.81;100.00;97360.45;272998;1266;22458;-86
